sensor_id;sensor_type;location;lat;lon;timestamp;P1;durP1;ratioP1;P2;durP2;ratioP2
75667;SDS011;64266;48.798;44.756;2023-12-04T00:02:35;25.55;;;10.65;;
75667;SDS011;64266;48.798;44.756;2023-12-04T00:07:38;28.10;;;11.25;;
75667;SDS011;64266;48.798;44.756;2023-12-04T00:12:41;28.08;;;10.25;;
75667;SDS011;64266;48.798;44.756;2023-12-04T00:17:44;27.95;;;10.93;;
75667;SDS011;64266;48.798;44.756;2023-12-04T00:22:46;29.73;;;10.57;;
75667;SDS011;64266;48.798;44.756;2023-12-04T00:27:50;35.95;;;10.90;;
75667;SDS011;64266;48.798;44.756;2023-12-04T00:32:53;27.80;;;10.88;;
75667;SDS011;64266;48.798;44.756;2023-12-04T00:37:56;24.63;;;9.82;;
75667;SDS011;64266;48.798;44.756;2023-12-04T00:42:59;26.05;;;11.10;;
75667;SDS011;64266;48.798;44.756;2023-12-04T00:48:02;20.15;;;9.70;;
75667;SDS011;64266;48.798;44.756;2023-12-04T00:53:06;25.52;;;9.98;;
75667;SDS011;64266;48.798;44.756;2023-12-04T00:58:09;19.02;;;8.43;;
75667;SDS011;64266;48.798;44.756;2023-12-04T01:03:12;23.05;;;9.73;;
75667;SDS011;64266;48.798;44.756;2023-12-04T01:08:15;30.95;;;9.90;;
75667;SDS011;64266;48.798;44.756;2023-12-04T01:13:18;23.25;;;8.73;;
75667;SDS011;64266;48.798;44.756;2023-12-04T01:18:21;16.00;;;6.60;;
75667;SDS011;64266;48.798;44.756;2023-12-04T01:23:24;11.13;;;4.97;;
75667;SDS011;64266;48.798;44.756;2023-12-04T01:28:27;11.70;;;3.92;;
75667;SDS011;64266;48.798;44.756;2023-12-04T01:33:30;6.68;;;3.30;;
75667;SDS011;64266;48.798;44.756;2023-12-04T01:38:34;6.60;;;2.92;;
75667;SDS011;64266;48.798;44.756;2023-12-04T01:43:37;7.47;;;3.42;;
75667;SDS011;64266;48.798;44.756;2023-12-04T01:48:39;6.93;;;3.75;;
75667;SDS011;64266;48.798;44.756;2023-12-04T01:53:42;5.72;;;3.25;;
75667;SDS011;64266;48.798;44.756;2023-12-04T01:58:46;8.57;;;3.83;;
75667;SDS011;64266;48.798;44.756;2023-12-04T02:03:49;8.85;;;3.88;;
75667;SDS011;64266;48.798;44.756;2023-12-04T02:08:53;8.35;;;3.75;;
75667;SDS011;64266;48.798;44.756;2023-12-04T02:13:56;7.50;;;3.45;;
75667;SDS011;64266;48.798;44.756;2023-12-04T02:18:59;7.10;;;3.90;;
75667;SDS011;64266;48.798;44.756;2023-12-04T02:24:03;7.68;;;3.60;;
75667;SDS011;64266;48.798;44.756;2023-12-04T02:29:07;7.57;;;3.92;;
75667;SDS011;64266;48.798;44.756;2023-12-04T02:34:14;7.38;;;3.72;;
75667;SDS011;64266;48.798;44.756;2023-12-04T02:39:18;9.23;;;3.53;;
75667;SDS011;64266;48.798;44.756;2023-12-04T02:44:22;7.00;;;3.70;;
75667;SDS011;64266;48.798;44.756;2023-12-04T02:49:25;9.30;;;4.40;;
75667;SDS011;64266;48.798;44.756;2023-12-04T02:54:29;9.70;;;4.60;;
75667;SDS011;64266;48.798;44.756;2023-12-04T02:59:32;9.18;;;4.25;;
75667;SDS011;64266;48.798;44.756;2023-12-04T03:04:35;7.95;;;4.25;;
75667;SDS011;64266;48.798;44.756;2023-12-04T03:09:38;7.45;;;4.22;;
75667;SDS011;64266;48.798;44.756;2023-12-04T03:14:50;7.65;;;3.95;;
75667;SDS011;64266;48.798;44.756;2023-12-04T03:19:53;8.35;;;3.85;;
75667;SDS011;64266;48.798;44.756;2023-12-04T03:24:56;8.63;;;4.55;;
75667;SDS011;64266;48.798;44.756;2023-12-04T03:29:59;7.70;;;4.13;;
75667;SDS011;64266;48.798;44.756;2023-12-04T03:35:03;9.20;;;4.45;;
75667;SDS011;64266;48.798;44.756;2023-12-04T03:40:07;8.15;;;4.40;;
75667;SDS011;64266;48.798;44.756;2023-12-04T03:45:10;8.35;;;4.45;;
75667;SDS011;64266;48.798;44.756;2023-12-04T03:50:13;8.48;;;4.45;;
75667;SDS011;64266;48.798;44.756;2023-12-04T03:55:16;8.77;;;3.92;;
75667;SDS011;64266;48.798;44.756;2023-12-04T04:00:21;7.55;;;3.92;;
75667;SDS011;64266;48.798;44.756;2023-12-04T04:05:25;8.90;;;4.10;;
75667;SDS011;64266;48.798;44.756;2023-12-04T04:10:27;9.02;;;4.30;;
75667;SDS011;64266;48.798;44.756;2023-12-04T04:15:31;8.38;;;4.03;;
75667;SDS011;64266;48.798;44.756;2023-12-04T04:20:34;9.27;;;4.05;;
75667;SDS011;64266;48.798;44.756;2023-12-04T04:25:37;7.97;;;4.40;;
75667;SDS011;64266;48.798;44.756;2023-12-04T04:30:40;9.55;;;4.35;;
75667;SDS011;64266;48.798;44.756;2023-12-04T04:35:43;8.05;;;4.43;;
75667;SDS011;64266;48.798;44.756;2023-12-04T04:40:46;10.77;;;4.93;;
75667;SDS011;64266;48.798;44.756;2023-12-04T04:45:49;9.07;;;4.82;;
75667;SDS011;64266;48.798;44.756;2023-12-04T04:50:52;9.73;;;4.95;;
75667;SDS011;64266;48.798;44.756;2023-12-04T04:55:55;10.23;;;5.22;;
75667;SDS011;64266;48.798;44.756;2023-12-04T05:00:59;10.98;;;6.13;;
75667;SDS011;64266;48.798;44.756;2023-12-04T05:06:02;12.05;;;6.85;;
75667;SDS011;64266;48.798;44.756;2023-12-04T05:11:06;11.10;;;6.03;;
75667;SDS011;64266;48.798;44.756;2023-12-04T05:16:09;10.50;;;5.18;;
75667;SDS011;64266;48.798;44.756;2023-12-04T05:21:12;12.05;;;5.35;;
75667;SDS011;64266;48.798;44.756;2023-12-04T05:26:15;14.02;;;8.02;;
75667;SDS011;64266;48.798;44.756;2023-12-04T05:31:18;35.15;;;17.20;;
75667;SDS011;64266;48.798;44.756;2023-12-04T05:36:23;8.93;;;5.25;;
75667;SDS011;64266;48.798;44.756;2023-12-04T05:41:26;16.20;;;6.03;;
75667;SDS011;64266;48.798;44.756;2023-12-04T05:46:28;10.00;;;5.93;;
75667;SDS011;64266;48.798;44.756;2023-12-04T05:51:31;13.85;;;6.80;;
75667;SDS011;64266;48.798;44.756;2023-12-04T05:56:36;11.00;;;6.18;;
75667;SDS011;64266;48.798;44.756;2023-12-04T06:01:39;11.75;;;6.68;;
75667;SDS011;64266;48.798;44.756;2023-12-04T06:06:42;13.68;;;6.72;;
75667;SDS011;64266;48.798;44.756;2023-12-04T06:11:45;12.13;;;6.70;;
75667;SDS011;64266;48.798;44.756;2023-12-04T06:16:49;11.65;;;5.72;;
75667;SDS011;64266;48.798;44.756;2023-12-04T06:21:52;11.45;;;6.47;;
75667;SDS011;64266;48.798;44.756;2023-12-04T06:26:55;19.02;;;9.43;;
75667;SDS011;64266;48.798;44.756;2023-12-04T06:31:58;12.10;;;7.05;;
75667;SDS011;64266;48.798;44.756;2023-12-04T06:37:02;10.68;;;6.03;;
75667;SDS011;64266;48.798;44.756;2023-12-04T06:42:06;10.88;;;6.20;;
75667;SDS011;64266;48.798;44.756;2023-12-04T06:47:11;13.07;;;6.90;;
75667;SDS011;64266;48.798;44.756;2023-12-04T06:52:15;10.30;;;5.88;;
75667;SDS011;64266;48.798;44.756;2023-12-04T06:57:18;12.20;;;6.35;;
75667;SDS011;64266;48.798;44.756;2023-12-04T07:02:21;12.57;;;6.20;;
75667;SDS011;64266;48.798;44.756;2023-12-04T07:07:24;11.02;;;6.70;;
75667;SDS011;64266;48.798;44.756;2023-12-04T07:12:30;11.90;;;6.45;;
75667;SDS011;64266;48.798;44.756;2023-12-04T07:17:34;16.20;;;7.88;;
75667;SDS011;64266;48.798;44.756;2023-12-04T07:22:38;12.82;;;5.97;;
75667;SDS011;64266;48.798;44.756;2023-12-04T07:27:41;11.13;;;6.05;;
75667;SDS011;64266;48.798;44.756;2023-12-04T07:32:43;10.05;;;5.80;;
75667;SDS011;64266;48.798;44.756;2023-12-04T07:37:47;15.52;;;5.72;;
75667;SDS011;64266;48.798;44.756;2023-12-04T07:42:51;12.27;;;5.85;;
75667;SDS011;64266;48.798;44.756;2023-12-04T07:47:54;15.88;;;8.75;;
75667;SDS011;64266;48.798;44.756;2023-12-04T07:52:57;24.00;;;11.75;;
75667;SDS011;64266;48.798;44.756;2023-12-04T07:58:00;11.25;;;5.80;;
75667;SDS011;64266;48.798;44.756;2023-12-04T08:03:03;18.77;;;9.45;;
75667;SDS011;64266;48.798;44.756;2023-12-04T08:08:06;9.38;;;5.50;;
75667;SDS011;64266;48.798;44.756;2023-12-04T08:13:08;13.38;;;5.65;;
75667;SDS011;64266;48.798;44.756;2023-12-04T08:18:11;19.95;;;8.93;;
75667;SDS011;64266;48.798;44.756;2023-12-04T08:23:14;10.63;;;5.50;;
75667;SDS011;64266;48.798;44.756;2023-12-04T08:28:17;13.48;;;6.38;;
75667;SDS011;64266;48.798;44.756;2023-12-04T08:33:20;12.15;;;5.75;;
75667;SDS011;64266;48.798;44.756;2023-12-04T08:38:23;9.27;;;5.32;;
75667;SDS011;64266;48.798;44.756;2023-12-04T08:43:27;12.52;;;5.93;;
75667;SDS011;64266;48.798;44.756;2023-12-04T08:48:31;10.65;;;5.70;;
75667;SDS011;64266;48.798;44.756;2023-12-04T08:53:35;11.35;;;5.57;;
75667;SDS011;64266;48.798;44.756;2023-12-04T08:58:39;12.48;;;5.80;;
75667;SDS011;64266;48.798;44.756;2023-12-04T09:03:42;10.98;;;5.95;;
75667;SDS011;64266;48.798;44.756;2023-12-04T09:08:46;12.57;;;6.85;;
75667;SDS011;64266;48.798;44.756;2023-12-04T09:19:19;10.85;;;5.20;;
75667;SDS011;64266;48.798;44.756;2023-12-04T09:24:22;9.05;;;5.30;;
75667;SDS011;64266;48.798;44.756;2023-12-04T09:29:26;11.52;;;6.28;;
75667;SDS011;64266;48.798;44.756;2023-12-04T09:34:30;11.13;;;5.38;;
75667;SDS011;64266;48.798;44.756;2023-12-04T09:39:41;13.57;;;5.57;;
75667;SDS011;64266;48.798;44.756;2023-12-04T09:44:44;14.18;;;7.65;;
75667;SDS011;64266;48.798;44.756;2023-12-04T09:49:52;10.68;;;5.00;;
75667;SDS011;64266;48.798;44.756;2023-12-04T09:54:57;10.23;;;4.97;;
75667;SDS011;64266;48.798;44.756;2023-12-04T10:00:00;10.13;;;5.55;;
75667;SDS011;64266;48.798;44.756;2023-12-04T10:05:13;12.90;;;5.38;;
75667;SDS011;64266;48.798;44.756;2023-12-04T10:10:21;13.77;;;5.55;;
75667;SDS011;64266;48.798;44.756;2023-12-04T10:15:23;16.83;;;5.68;;
75667;SDS011;64266;48.798;44.756;2023-12-04T10:20:26;12.30;;;5.75;;
75667;SDS011;64266;48.798;44.756;2023-12-04T10:25:30;12.57;;;5.60;;
75667;SDS011;64266;48.798;44.756;2023-12-04T10:30:33;13.55;;;5.68;;
75667;SDS011;64266;48.798;44.756;2023-12-04T10:35:36;11.05;;;5.75;;
75667;SDS011;64266;48.798;44.756;2023-12-04T10:40:40;14.55;;;8.23;;
75667;SDS011;64266;48.798;44.756;2023-12-04T10:45:44;11.13;;;6.13;;
75667;SDS011;64266;48.798;44.756;2023-12-04T10:50:48;12.95;;;6.65;;
75667;SDS011;64266;48.798;44.756;2023-12-04T10:55:52;10.52;;;5.68;;
75667;SDS011;64266;48.798;44.756;2023-12-04T11:01:01;9.13;;;5.45;;
75667;SDS011;64266;48.798;44.756;2023-12-04T11:06:07;10.40;;;6.38;;
75667;SDS011;64266;48.798;44.756;2023-12-04T11:11:15;13.43;;;7.55;;
75667;SDS011;64266;48.798;44.756;2023-12-04T11:16:51;11.27;;;6.15;;
75667;SDS011;64266;48.798;44.756;2023-12-04T11:22:00;14.07;;;8.02;;
75667;SDS011;64266;48.798;44.756;2023-12-04T11:27:04;15.60;;;7.22;;
75667;SDS011;64266;48.798;44.756;2023-12-04T11:32:12;12.13;;;7.35;;
75667;SDS011;64266;48.798;44.756;2023-12-04T11:37:20;10.15;;;5.80;;
75667;SDS011;64266;48.798;44.756;2023-12-04T11:42:24;9.85;;;5.95;;
75667;SDS011;64266;48.798;44.756;2023-12-04T11:47:28;8.98;;;4.90;;
75667;SDS011;64266;48.798;44.756;2023-12-04T11:52:32;10.48;;;5.80;;
75667;SDS011;64266;48.798;44.756;2023-12-04T11:57:37;10.05;;;5.50;;
75667;SDS011;64266;48.798;44.756;2023-12-04T12:02:45;10.88;;;5.97;;
75667;SDS011;64266;48.798;44.756;2023-12-04T12:08:11;10.77;;;5.85;;
75667;SDS011;64266;48.798;44.756;2023-12-04T12:13:15;11.75;;;6.43;;
75667;SDS011;64266;48.798;44.756;2023-12-04T12:18:21;10.68;;;6.18;;
75667;SDS011;64266;48.798;44.756;2023-12-04T12:28:28;10.27;;;6.15;;
75667;SDS011;64266;48.798;44.756;2023-12-04T12:33:32;14.10;;;6.63;;
75667;SDS011;64266;48.798;44.756;2023-12-04T12:38:36;13.38;;;5.80;;
75667;SDS011;64266;48.798;44.756;2023-12-04T12:43:39;14.27;;;6.43;;
75667;SDS011;64266;48.798;44.756;2023-12-04T12:48:42;12.40;;;6.25;;
75667;SDS011;64266;48.798;44.756;2023-12-04T12:53:47;12.23;;;6.38;;
75667;SDS011;64266;48.798;44.756;2023-12-04T12:58:53;13.57;;;6.32;;
75667;SDS011;64266;48.798;44.756;2023-12-04T13:03:57;14.15;;;7.90;;
75667;SDS011;64266;48.798;44.756;2023-12-04T13:09:00;14.77;;;7.03;;
75667;SDS011;64266;48.798;44.756;2023-12-04T13:14:03;11.43;;;5.75;;
75667;SDS011;64266;48.798;44.756;2023-12-04T13:19:07;11.40;;;5.85;;
75667;SDS011;64266;48.798;44.756;2023-12-04T13:24:10;10.73;;;5.47;;
75667;SDS011;64266;48.798;44.756;2023-12-04T13:29:14;14.10;;;6.15;;
75667;SDS011;64266;48.798;44.756;2023-12-04T13:34:19;11.75;;;5.93;;
75667;SDS011;64266;48.798;44.756;2023-12-04T13:39:22;15.68;;;6.30;;
75667;SDS011;64266;48.798;44.756;2023-12-04T13:44:43;13.18;;;6.40;;
75667;SDS011;64266;48.798;44.756;2023-12-04T13:49:46;15.02;;;5.38;;
75667;SDS011;64266;48.798;44.756;2023-12-04T13:54:49;12.82;;;6.15;;
75667;SDS011;64266;48.798;44.756;2023-12-04T13:59:55;12.85;;;5.00;;
75667;SDS011;64266;48.798;44.756;2023-12-04T14:04:59;13.55;;;6.45;;
75667;SDS011;64266;48.798;44.756;2023-12-04T14:10:03;12.30;;;5.65;;
75667;SDS011;64266;48.798;44.756;2023-12-04T14:15:07;13.52;;;5.95;;
75667;SDS011;64266;48.798;44.756;2023-12-04T14:20:13;14.80;;;5.28;;
75667;SDS011;64266;48.798;44.756;2023-12-04T14:25:19;13.57;;;5.40;;
75667;SDS011;64266;48.798;44.756;2023-12-04T14:30:22;17.85;;;5.40;;
75667;SDS011;64266;48.798;44.756;2023-12-04T14:35:26;12.73;;;5.20;;
75667;SDS011;64266;48.798;44.756;2023-12-04T14:40:30;10.02;;;4.45;;
75667;SDS011;64266;48.798;44.756;2023-12-04T14:45:33;8.63;;;4.63;;
75667;SDS011;64266;48.798;44.756;2023-12-04T14:50:38;17.67;;;5.20;;
75667;SDS011;64266;48.798;44.756;2023-12-04T14:55:44;10.43;;;4.53;;
75667;SDS011;64266;48.798;44.756;2023-12-04T15:01:09;9.25;;;4.13;;
75667;SDS011;64266;48.798;44.756;2023-12-04T15:06:16;13.57;;;4.82;;
75667;SDS011;64266;48.798;44.756;2023-12-04T15:11:38;9.95;;;4.97;;
75667;SDS011;64266;48.798;44.756;2023-12-04T15:17:04;10.63;;;5.65;;
75667;SDS011;64266;48.798;44.756;2023-12-04T15:22:21;12.10;;;5.05;;
75667;SDS011;64266;48.798;44.756;2023-12-04T15:27:24;8.98;;;4.70;;
75667;SDS011;64266;48.798;44.756;2023-12-04T15:32:27;13.43;;;5.47;;
75667;SDS011;64266;48.798;44.756;2023-12-04T15:37:30;12.05;;;6.38;;
75667;SDS011;64266;48.798;44.756;2023-12-04T15:42:33;13.68;;;6.28;;
75667;SDS011;64266;48.798;44.756;2023-12-04T15:47:36;13.55;;;6.25;;
75667;SDS011;64266;48.798;44.756;2023-12-04T15:52:39;14.60;;;6.90;;
75667;SDS011;64266;48.798;44.756;2023-12-04T15:57:44;16.65;;;6.50;;
75667;SDS011;64266;48.798;44.756;2023-12-04T16:02:48;21.73;;;7.18;;
75667;SDS011;64266;48.798;44.756;2023-12-04T16:07:51;16.10;;;6.65;;
75667;SDS011;64266;48.798;44.756;2023-12-04T16:12:54;16.55;;;6.68;;
75667;SDS011;64266;48.798;44.756;2023-12-04T16:17:57;13.27;;;6.28;;
75667;SDS011;64266;48.798;44.756;2023-12-04T16:23:00;17.48;;;6.38;;
75667;SDS011;64266;48.798;44.756;2023-12-04T16:28:03;15.32;;;5.63;;
75667;SDS011;64266;48.798;44.756;2023-12-04T16:33:07;12.10;;;5.25;;
75667;SDS011;64266;48.798;44.756;2023-12-04T16:38:11;9.73;;;5.00;;
75667;SDS011;64266;48.798;44.756;2023-12-04T16:43:14;10.93;;;5.03;;
75667;SDS011;64266;48.798;44.756;2023-12-04T16:48:17;11.88;;;4.80;;
75667;SDS011;64266;48.798;44.756;2023-12-04T16:53:21;10.48;;;4.95;;
75667;SDS011;64266;48.798;44.756;2023-12-04T16:58:24;11.32;;;4.80;;
75667;SDS011;64266;48.798;44.756;2023-12-04T17:03:26;17.15;;;4.90;;
75667;SDS011;64266;48.798;44.756;2023-12-04T17:08:31;11.27;;;4.97;;
75667;SDS011;64266;48.798;44.756;2023-12-04T17:13:34;11.07;;;4.93;;
75667;SDS011;64266;48.798;44.756;2023-12-04T17:18:37;10.88;;;4.97;;
75667;SDS011;64266;48.798;44.756;2023-12-04T17:23:40;12.95;;;5.30;;
75667;SDS011;64266;48.798;44.756;2023-12-04T17:28:43;10.90;;;4.93;;
75667;SDS011;64266;48.798;44.756;2023-12-04T17:33:46;13.75;;;6.88;;
75667;SDS011;64266;48.798;44.756;2023-12-04T17:38:49;13.18;;;5.93;;
75667;SDS011;64266;48.798;44.756;2023-12-04T17:43:52;13.30;;;6.72;;
75667;SDS011;64266;48.798;44.756;2023-12-04T17:48:55;14.13;;;6.25;;
75667;SDS011;64266;48.798;44.756;2023-12-04T17:54:00;14.55;;;6.90;;
75667;SDS011;64266;48.798;44.756;2023-12-04T17:59:02;13.82;;;6.90;;
75667;SDS011;64266;48.798;44.756;2023-12-04T18:04:06;12.65;;;6.20;;
75667;SDS011;64266;48.798;44.756;2023-12-04T18:09:10;12.90;;;5.80;;
75667;SDS011;64266;48.798;44.756;2023-12-04T18:14:13;14.88;;;6.90;;
75667;SDS011;64266;48.798;44.756;2023-12-04T18:19:17;13.90;;;6.55;;
75667;SDS011;64266;48.798;44.756;2023-12-04T18:24:20;17.85;;;8.07;;
75667;SDS011;64266;48.798;44.756;2023-12-04T18:29:23;13.38;;;6.82;;
75667;SDS011;64266;48.798;44.756;2023-12-04T18:34:26;16.02;;;8.13;;
75667;SDS011;64266;48.798;44.756;2023-12-04T18:39:30;16.77;;;7.35;;
75667;SDS011;64266;48.798;44.756;2023-12-04T18:44:34;15.23;;;7.35;;
75667;SDS011;64266;48.798;44.756;2023-12-04T18:49:37;13.90;;;6.35;;
75667;SDS011;64266;48.798;44.756;2023-12-04T18:54:44;12.35;;;6.65;;
75667;SDS011;64266;48.798;44.756;2023-12-04T18:59:48;12.13;;;5.90;;
75667;SDS011;64266;48.798;44.756;2023-12-04T19:04:51;12.52;;;5.55;;
75667;SDS011;64266;48.798;44.756;2023-12-04T19:09:54;12.05;;;5.70;;
75667;SDS011;64266;48.798;44.756;2023-12-04T19:14:57;12.73;;;5.97;;
75667;SDS011;64266;48.798;44.756;2023-12-04T19:20:00;12.25;;;5.45;;
75667;SDS011;64266;48.798;44.756;2023-12-04T19:25:04;13.63;;;6.13;;
75667;SDS011;64266;48.798;44.756;2023-12-04T19:30:07;13.10;;;6.22;;
75667;SDS011;64266;48.798;44.756;2023-12-04T19:35:10;14.40;;;6.22;;
75667;SDS011;64266;48.798;44.756;2023-12-04T19:40:13;12.82;;;6.15;;
75667;SDS011;64266;48.798;44.756;2023-12-04T19:45:17;13.15;;;6.10;;
75667;SDS011;64266;48.798;44.756;2023-12-04T19:50:20;11.23;;;5.50;;
75667;SDS011;64266;48.798;44.756;2023-12-04T19:55:24;12.48;;;6.18;;
75667;SDS011;64266;48.798;44.756;2023-12-04T20:00:27;12.82;;;5.25;;
75667;SDS011;64266;48.798;44.756;2023-12-04T20:05:32;11.43;;;5.03;;
75667;SDS011;64266;48.798;44.756;2023-12-04T20:10:35;12.45;;;6.10;;
75667;SDS011;64266;48.798;44.756;2023-12-04T20:15:40;10.95;;;5.28;;
75667;SDS011;64266;48.798;44.756;2023-12-04T20:20:43;13.30;;;5.45;;
75667;SDS011;64266;48.798;44.756;2023-12-04T20:25:46;12.65;;;5.85;;
75667;SDS011;64266;48.798;44.756;2023-12-04T20:30:50;13.60;;;6.13;;
75667;SDS011;64266;48.798;44.756;2023-12-04T20:35:53;11.93;;;6.32;;
75667;SDS011;64266;48.798;44.756;2023-12-04T20:40:57;13.40;;;5.35;;
75667;SDS011;64266;48.798;44.756;2023-12-04T20:46:00;10.18;;;5.18;;
75667;SDS011;64266;48.798;44.756;2023-12-04T20:51:06;12.98;;;5.60;;
75667;SDS011;64266;48.798;44.756;2023-12-04T20:56:10;13.45;;;5.60;;
75667;SDS011;64266;48.798;44.756;2023-12-04T21:01:14;12.30;;;5.03;;
75667;SDS011;64266;48.798;44.756;2023-12-04T21:06:20;12.05;;;5.55;;
75667;SDS011;64266;48.798;44.756;2023-12-04T21:11:24;12.68;;;5.50;;
75667;SDS011;64266;48.798;44.756;2023-12-04T21:16:27;11.43;;;5.65;;
75667;SDS011;64266;48.798;44.756;2023-12-04T21:21:30;11.75;;;5.07;;
75667;SDS011;64266;48.798;44.756;2023-12-04T21:26:33;11.57;;;5.18;;
75667;SDS011;64266;48.798;44.756;2023-12-04T21:31:37;12.15;;;5.35;;
75667;SDS011;64266;48.798;44.756;2023-12-04T21:36:39;11.75;;;5.25;;
75667;SDS011;64266;48.798;44.756;2023-12-04T21:41:42;12.23;;;5.60;;
75667;SDS011;64266;48.798;44.756;2023-12-04T21:46:46;10.82;;;5.28;;
75667;SDS011;64266;48.798;44.756;2023-12-04T21:51:49;10.82;;;4.45;;
75667;SDS011;64266;48.798;44.756;2023-12-04T21:56:52;12.07;;;5.28;;
75667;SDS011;64266;48.798;44.756;2023-12-04T22:01:55;11.95;;;5.45;;
75667;SDS011;64266;48.798;44.756;2023-12-04T22:07:00;11.52;;;5.60;;
75667;SDS011;64266;48.798;44.756;2023-12-04T22:12:03;14.77;;;6.57;;
75667;SDS011;64266;48.798;44.756;2023-12-04T22:17:06;14.73;;;7.00;;
75667;SDS011;64266;48.798;44.756;2023-12-04T22:22:09;13.02;;;5.85;;
75667;SDS011;64266;48.798;44.756;2023-12-04T22:27:12;14.60;;;6.45;;
75667;SDS011;64266;48.798;44.756;2023-12-04T22:32:15;10.27;;;4.57;;
75667;SDS011;64266;48.798;44.756;2023-12-04T22:37:18;13.52;;;5.78;;
75667;SDS011;64266;48.798;44.756;2023-12-04T22:42:21;13.48;;;5.50;;
75667;SDS011;64266;48.798;44.756;2023-12-04T22:47:24;11.50;;;5.22;;
75667;SDS011;64266;48.798;44.756;2023-12-04T22:52:28;13.27;;;5.22;;
75667;SDS011;64266;48.798;44.756;2023-12-04T22:57:31;13.70;;;5.97;;
75667;SDS011;64266;48.798;44.756;2023-12-04T23:02:34;13.93;;;5.18;;
75667;SDS011;64266;48.798;44.756;2023-12-04T23:07:37;12.02;;;4.85;;
75667;SDS011;64266;48.798;44.756;2023-12-04T23:12:39;10.18;;;4.35;;
75667;SDS011;64266;48.798;44.756;2023-12-04T23:17:43;12.15;;;4.82;;
75667;SDS011;64266;48.798;44.756;2023-12-04T23:22:46;11.20;;;4.78;;
75667;SDS011;64266;48.798;44.756;2023-12-04T23:27:49;11.68;;;4.72;;
75667;SDS011;64266;48.798;44.756;2023-12-04T23:32:52;12.23;;;5.28;;
75667;SDS011;64266;48.798;44.756;2023-12-04T23:37:55;14.52;;;4.85;;
75667;SDS011;64266;48.798;44.756;2023-12-04T23:42:58;11.32;;;4.72;;
75667;SDS011;64266;48.798;44.756;2023-12-04T23:48:01;12.30;;;5.03;;
75667;SDS011;64266;48.798;44.756;2023-12-04T23:53:04;10.45;;;4.55;;
75667;SDS011;64266;48.798;44.756;2023-12-04T23:58:07;10.48;;;4.10;;
